sensor_id;sensor_type;location;lat;lon;timestamp;P1;durP1;ratioP1;P2;durP2;ratioP2
68273;SDS011;55104;47.356;19.448;2022-09-30T00:00:32;2.20;;;0.70;;
68273;SDS011;55104;47.356;19.448;2022-09-30T00:03:34;2.05;;;1.00;;
68273;SDS011;55104;47.356;19.448;2022-09-30T00:06:39;1.20;;;0.60;;
68273;SDS011;55104;47.356;19.448;2022-09-30T00:09:41;3.53;;;0.82;;
68273;SDS011;55104;47.356;19.448;2022-09-30T00:12:44;1.17;;;0.50;;
68273;SDS011;55104;47.356;19.448;2022-09-30T00:15:47;1.70;;;0.47;;
68273;SDS011;55104;47.356;19.448;2022-09-30T00:18:49;1.85;;;0.57;;
68273;SDS011;55104;47.356;19.448;2022-09-30T00:21:51;2.10;;;0.87;;
68273;SDS011;55104;47.356;19.448;2022-09-30T00:24:53;1.42;;;0.43;;
68273;SDS011;55104;47.356;19.448;2022-09-30T00:27:55;1.25;;;0.45;;
68273;SDS011;55104;47.356;19.448;2022-09-30T00:31:01;1.65;;;0.63;;
68273;SDS011;55104;47.356;19.448;2022-09-30T00:34:08;1.75;;;0.93;;
68273;SDS011;55104;47.356;19.448;2022-09-30T00:37:13;1.27;;;0.67;;
68273;SDS011;55104;47.356;19.448;2022-09-30T00:40:18;0.85;;;0.35;;
68273;SDS011;55104;47.356;19.448;2022-09-30T00:46:56;0.82;;;0.20;;
68273;SDS011;55104;47.356;19.448;2022-09-30T00:53:32;1.23;;;0.40;;
68273;SDS011;55104;47.356;19.448;2022-09-30T00:56:57;0.60;;;0.30;;
68273;SDS011;55104;47.356;19.448;2022-09-30T01:00:04;1.10;;;0.45;;
68273;SDS011;55104;47.356;19.448;2022-09-30T01:03:08;1.80;;;0.80;;
68273;SDS011;55104;47.356;19.448;2022-09-30T01:06:10;2.88;;;0.88;;
68273;SDS011;55104;47.356;19.448;2022-09-30T01:09:12;2.53;;;0.80;;
68273;SDS011;55104;47.356;19.448;2022-09-30T01:12:15;0.63;;;0.22;;
68273;SDS011;55104;47.356;19.448;2022-09-30T01:15:23;2.97;;;0.98;;
68273;SDS011;55104;47.356;19.448;2022-09-30T01:33:25;1.15;;;0.40;;
68273;SDS011;55104;47.356;19.448;2022-09-30T01:36:33;0.52;;;0.22;;
68273;SDS011;55104;47.356;19.448;2022-09-30T01:39:44;2.00;;;0.45;;
68273;SDS011;55104;47.356;19.448;2022-09-30T01:43:05;10.53;;;0.60;;
68273;SDS011;55104;47.356;19.448;2022-09-30T01:52:51;1.02;;;0.40;;
68273;SDS011;55104;47.356;19.448;2022-09-30T01:56:05;0.90;;;0.40;;
68273;SDS011;55104;47.356;19.448;2022-09-30T02:02:25;3.92;;;0.73;;
68273;SDS011;55104;47.356;19.448;2022-09-30T02:05:32;1.95;;;0.93;;
68273;SDS011;55104;47.356;19.448;2022-09-30T02:09:04;1.05;;;0.40;;
68273;SDS011;55104;47.356;19.448;2022-09-30T02:12:13;1.60;;;0.52;;
68273;SDS011;55104;47.356;19.448;2022-09-30T02:15:24;3.70;;;0.40;;
68273;SDS011;55104;47.356;19.448;2022-09-30T02:18:33;1.15;;;0.47;;
68273;SDS011;55104;47.356;19.448;2022-09-30T02:21:41;0.60;;;0.20;;
68273;SDS011;55104;47.356;19.448;2022-09-30T02:24:49;1.50;;;0.60;;
68273;SDS011;55104;47.356;19.448;2022-09-30T02:27:57;3.25;;;1.13;;
68273;SDS011;55104;47.356;19.448;2022-09-30T02:31:02;1.23;;;0.53;;
68273;SDS011;55104;47.356;19.448;2022-09-30T02:34:10;1.95;;;0.52;;
68273;SDS011;55104;47.356;19.448;2022-09-30T02:37:21;2.75;;;0.80;;
68273;SDS011;55104;47.356;19.448;2022-09-30T02:40:49;4.15;;;1.00;;
68273;SDS011;55104;47.356;19.448;2022-09-30T02:43:55;0.95;;;0.40;;
68273;SDS011;55104;47.356;19.448;2022-09-30T02:47:02;0.90;;;0.60;;
68273;SDS011;55104;47.356;19.448;2022-09-30T02:50:31;1.05;;;0.30;;
68273;SDS011;55104;47.356;19.448;2022-09-30T02:53:38;1.75;;;0.50;;
68273;SDS011;55104;47.356;19.448;2022-09-30T03:00:06;1.00;;;0.35;;
68273;SDS011;55104;47.356;19.448;2022-09-30T03:03:24;0.93;;;0.23;;
68273;SDS011;55104;47.356;19.448;2022-09-30T03:06:34;1.60;;;0.55;;
68273;SDS011;55104;47.356;19.448;2022-09-30T03:09:37;1.00;;;0.40;;
68273;SDS011;55104;47.356;19.448;2022-09-30T03:12:48;1.35;;;0.55;;
68273;SDS011;55104;47.356;19.448;2022-09-30T03:29:23;2.95;;;1.23;;
68273;SDS011;55104;47.356;19.448;2022-09-30T03:36:04;2.20;;;0.80;;
68273;SDS011;55104;47.356;19.448;2022-09-30T03:39:13;3.65;;;0.85;;
68273;SDS011;55104;47.356;19.448;2022-09-30T03:42:33;0.93;;;0.55;;
68273;SDS011;55104;47.356;19.448;2022-09-30T03:45:38;1.25;;;0.40;;
68273;SDS011;55104;47.356;19.448;2022-09-30T03:48:51;2.17;;;0.80;;
68273;SDS011;55104;47.356;19.448;2022-09-30T03:51:57;0.90;;;0.40;;
68273;SDS011;55104;47.356;19.448;2022-09-30T03:55:05;1.25;;;0.55;;
68273;SDS011;55104;47.356;19.448;2022-09-30T03:58:10;1.02;;;0.50;;
68273;SDS011;55104;47.356;19.448;2022-09-30T04:01:16;0.73;;;0.30;;
68273;SDS011;55104;47.356;19.448;2022-09-30T04:04:21;1.10;;;0.35;;
68273;SDS011;55104;47.356;19.448;2022-09-30T04:07:24;0.63;;;0.20;;
68273;SDS011;55104;47.356;19.448;2022-09-30T04:10:26;4.20;;;0.98;;
68273;SDS011;55104;47.356;19.448;2022-09-30T04:13:28;2.40;;;0.50;;
68273;SDS011;55104;47.356;19.448;2022-09-30T04:16:30;1.70;;;0.50;;
68273;SDS011;55104;47.356;19.448;2022-09-30T04:19:33;4.78;;;0.68;;
68273;SDS011;55104;47.356;19.448;2022-09-30T04:22:38;3.33;;;1.20;;
68273;SDS011;55104;47.356;19.448;2022-09-30T04:25:40;1.58;;;0.80;;
68273;SDS011;55104;47.356;19.448;2022-09-30T04:28:42;1.67;;;0.63;;
68273;SDS011;55104;47.356;19.448;2022-09-30T04:31:44;2.75;;;1.10;;
68273;SDS011;55104;47.356;19.448;2022-09-30T04:34:46;1.95;;;0.63;;
68273;SDS011;55104;47.356;19.448;2022-09-30T04:37:48;3.30;;;1.00;;
68273;SDS011;55104;47.356;19.448;2022-09-30T04:40:51;2.72;;;0.70;;
68273;SDS011;55104;47.356;19.448;2022-09-30T04:43:55;2.72;;;1.02;;
68273;SDS011;55104;47.356;19.448;2022-09-30T04:46:57;1.98;;;0.88;;
68273;SDS011;55104;47.356;19.448;2022-09-30T04:50:01;2.17;;;0.80;;
68273;SDS011;55104;47.356;19.448;2022-09-30T04:53:03;2.03;;;0.87;;
68273;SDS011;55104;47.356;19.448;2022-09-30T04:56:05;1.23;;;0.43;;
68273;SDS011;55104;47.356;19.448;2022-09-30T04:59:09;1.65;;;0.95;;
68273;SDS011;55104;47.356;19.448;2022-09-30T05:02:12;2.70;;;0.63;;
68273;SDS011;55104;47.356;19.448;2022-09-30T05:05:14;2.75;;;1.13;;
68273;SDS011;55104;47.356;19.448;2022-09-30T05:08:16;4.20;;;1.27;;
68273;SDS011;55104;47.356;19.448;2022-09-30T05:11:19;0.90;;;0.32;;
68273;SDS011;55104;47.356;19.448;2022-09-30T05:14:22;2.50;;;1.02;;
68273;SDS011;55104;47.356;19.448;2022-09-30T05:17:24;1.00;;;0.40;;
68273;SDS011;55104;47.356;19.448;2022-09-30T05:20:26;2.90;;;0.75;;
68273;SDS011;55104;47.356;19.448;2022-09-30T05:23:28;2.23;;;0.80;;
68273;SDS011;55104;47.356;19.448;2022-09-30T05:26:31;0.88;;;0.28;;
68273;SDS011;55104;47.356;19.448;2022-09-30T05:29:33;4.05;;;1.20;;
68273;SDS011;55104;47.356;19.448;2022-09-30T05:32:36;1.52;;;0.63;;
68273;SDS011;55104;47.356;19.448;2022-09-30T05:35:38;2.20;;;0.47;;
68273;SDS011;55104;47.356;19.448;2022-09-30T05:38:42;2.30;;;0.90;;
68273;SDS011;55104;47.356;19.448;2022-09-30T05:41:44;1.73;;;0.68;;
68273;SDS011;55104;47.356;19.448;2022-09-30T05:44:46;2.88;;;0.80;;
68273;SDS011;55104;47.356;19.448;2022-09-30T05:47:51;1.77;;;0.50;;
68273;SDS011;55104;47.356;19.448;2022-09-30T05:50:55;4.47;;;0.80;;
68273;SDS011;55104;47.356;19.448;2022-09-30T05:53:59;1.67;;;0.57;;
68273;SDS011;55104;47.356;19.448;2022-09-30T05:57:01;2.38;;;0.70;;
68273;SDS011;55104;47.356;19.448;2022-09-30T06:00:03;4.93;;;0.93;;
68273;SDS011;55104;47.356;19.448;2022-09-30T06:03:12;2.65;;;0.98;;
68273;SDS011;55104;47.356;19.448;2022-09-30T06:06:15;2.88;;;0.85;;
68273;SDS011;55104;47.356;19.448;2022-09-30T06:09:19;2.67;;;0.73;;
68273;SDS011;55104;47.356;19.448;2022-09-30T06:12:21;0.90;;;0.30;;
68273;SDS011;55104;47.356;19.448;2022-09-30T06:15:24;2.75;;;0.95;;
68273;SDS011;55104;47.356;19.448;2022-09-30T06:18:27;0.75;;;0.32;;
68273;SDS011;55104;47.356;19.448;2022-09-30T06:21:29;1.67;;;0.45;;
68273;SDS011;55104;47.356;19.448;2022-09-30T06:24:31;1.80;;;0.70;;
68273;SDS011;55104;47.356;19.448;2022-09-30T06:27:34;1.02;;;0.52;;
68273;SDS011;55104;47.356;19.448;2022-09-30T06:30:36;1.58;;;0.55;;
68273;SDS011;55104;47.356;19.448;2022-09-30T06:33:37;1.73;;;0.93;;
68273;SDS011;55104;47.356;19.448;2022-09-30T06:36:40;1.73;;;0.35;;
68273;SDS011;55104;47.356;19.448;2022-09-30T06:39:41;1.83;;;0.60;;
68273;SDS011;55104;47.356;19.448;2022-09-30T06:42:43;1.67;;;0.70;;
68273;SDS011;55104;47.356;19.448;2022-09-30T06:45:46;6.22;;;1.13;;
68273;SDS011;55104;47.356;19.448;2022-09-30T06:48:53;1.38;;;0.63;;
68273;SDS011;55104;47.356;19.448;2022-09-30T06:52:09;5.15;;;0.90;;
68273;SDS011;55104;47.356;19.448;2022-09-30T06:55:14;2.60;;;1.20;;
68273;SDS011;55104;47.356;19.448;2022-09-30T06:58:16;3.58;;;0.95;;
68273;SDS011;55104;47.356;19.448;2022-09-30T07:01:18;1.27;;;0.57;;
68273;SDS011;55104;47.356;19.448;2022-09-30T07:04:21;4.80;;;1.52;;
68273;SDS011;55104;47.356;19.448;2022-09-30T07:07:24;1.80;;;0.63;;
68273;SDS011;55104;47.356;19.448;2022-09-30T07:10:26;2.27;;;0.80;;
68273;SDS011;55104;47.356;19.448;2022-09-30T07:13:28;1.27;;;0.50;;
68273;SDS011;55104;47.356;19.448;2022-09-30T07:16:30;2.00;;;0.55;;
68273;SDS011;55104;47.356;19.448;2022-09-30T07:19:39;2.63;;;0.75;;
68273;SDS011;55104;47.356;19.448;2022-09-30T07:22:41;5.03;;;0.90;;
68273;SDS011;55104;47.356;19.448;2022-09-30T07:25:50;3.40;;;1.07;;
68273;SDS011;55104;47.356;19.448;2022-09-30T07:29:03;2.22;;;1.05;;
68273;SDS011;55104;47.356;19.448;2022-09-30T07:32:07;1.70;;;0.50;;
68273;SDS011;55104;47.356;19.448;2022-09-30T07:35:09;3.53;;;0.65;;
68273;SDS011;55104;47.356;19.448;2022-09-30T07:38:11;2.00;;;0.80;;
68273;SDS011;55104;47.356;19.448;2022-09-30T07:41:15;2.73;;;0.67;;
68273;SDS011;55104;47.356;19.448;2022-09-30T07:44:19;2.70;;;0.60;;
68273;SDS011;55104;47.356;19.448;2022-09-30T07:47:21;1.63;;;0.47;;
68273;SDS011;55104;47.356;19.448;2022-09-30T07:50:23;1.98;;;0.75;;
68273;SDS011;55104;47.356;19.448;2022-09-30T07:53:25;2.05;;;0.65;;
68273;SDS011;55104;47.356;19.448;2022-09-30T07:56:27;1.83;;;0.63;;
68273;SDS011;55104;47.356;19.448;2022-09-30T07:59:50;1.92;;;0.63;;
68273;SDS011;55104;47.356;19.448;2022-09-30T08:02:52;0.52;;;0.28;;
68273;SDS011;55104;47.356;19.448;2022-09-30T08:05:54;2.72;;;1.25;;
68273;SDS011;55104;47.356;19.448;2022-09-30T08:08:56;2.15;;;0.60;;
68273;SDS011;55104;47.356;19.448;2022-09-30T08:12:00;2.70;;;0.90;;
68273;SDS011;55104;47.356;19.448;2022-09-30T08:15:04;1.70;;;0.57;;
68273;SDS011;55104;47.356;19.448;2022-09-30T08:18:07;1.75;;;0.70;;
68273;SDS011;55104;47.356;19.448;2022-09-30T08:21:09;3.20;;;1.42;;
68273;SDS011;55104;47.356;19.448;2022-09-30T08:24:11;0.47;;;0.25;;
68273;SDS011;55104;47.356;19.448;2022-09-30T08:27:14;0.50;;;0.30;;
68273;SDS011;55104;47.356;19.448;2022-09-30T08:30:16;4.07;;;0.68;;
68273;SDS011;55104;47.356;19.448;2022-09-30T08:33:18;1.95;;;0.68;;
68273;SDS011;55104;47.356;19.448;2022-09-30T08:36:22;1.30;;;0.40;;
68273;SDS011;55104;47.356;19.448;2022-09-30T08:39:25;2.97;;;0.80;;
68273;SDS011;55104;47.356;19.448;2022-09-30T08:42:37;1.17;;;0.43;;
68273;SDS011;55104;47.356;19.448;2022-09-30T08:46:11;1.95;;;0.70;;
68273;SDS011;55104;47.356;19.448;2022-09-30T08:52:31;0.95;;;0.22;;
68273;SDS011;55104;47.356;19.448;2022-09-30T08:55:49;1.63;;;0.68;;
68273;SDS011;55104;47.356;19.448;2022-09-30T08:59:05;3.93;;;0.83;;
68273;SDS011;55104;47.356;19.448;2022-09-30T09:02:17;2.63;;;0.80;;
68273;SDS011;55104;47.356;19.448;2022-09-30T09:08:59;2.95;;;1.10;;
68273;SDS011;55104;47.356;19.448;2022-09-30T09:12:10;3.55;;;1.48;;
68273;SDS011;55104;47.356;19.448;2022-09-30T09:21:53;2.50;;;0.65;;
68273;SDS011;55104;47.356;19.448;2022-09-30T09:25:02;2.40;;;0.70;;
68273;SDS011;55104;47.356;19.448;2022-09-30T09:28:11;1.35;;;0.60;;
68273;SDS011;55104;47.356;19.448;2022-09-30T09:31:26;2.10;;;0.80;;
68273;SDS011;55104;47.356;19.448;2022-09-30T09:34:28;0.83;;;0.57;;
68273;SDS011;55104;47.356;19.448;2022-09-30T09:37:39;0.28;;;0.13;;
68273;SDS011;55104;47.356;19.448;2022-09-30T09:44:43;1.95;;;0.65;;
68273;SDS011;55104;47.356;19.448;2022-09-30T09:47:53;2.20;;;0.90;;
68273;SDS011;55104;47.356;19.448;2022-09-30T09:54:03;1.15;;;0.40;;
68273;SDS011;55104;47.356;19.448;2022-09-30T09:57:14;2.35;;;0.55;;
68273;SDS011;55104;47.356;19.448;2022-09-30T10:00:24;2.95;;;0.88;;
68273;SDS011;55104;47.356;19.448;2022-09-30T10:03:45;1.07;;;0.43;;
68273;SDS011;55104;47.356;19.448;2022-09-30T10:07:13;1.50;;;0.43;;
68273;SDS011;55104;47.356;19.448;2022-09-30T10:10:16;1.25;;;0.40;;
68273;SDS011;55104;47.356;19.448;2022-09-30T10:13:46;2.08;;;0.57;;
68273;SDS011;55104;47.356;19.448;2022-09-30T10:16:47;1.60;;;0.43;;
68273;SDS011;55104;47.356;19.448;2022-09-30T10:19:50;0.97;;;0.33;;
68273;SDS011;55104;47.356;19.448;2022-09-30T10:23:08;4.00;;;0.60;;
68273;SDS011;55104;47.356;19.448;2022-09-30T10:26:35;2.53;;;1.23;;
68273;SDS011;55104;47.356;19.448;2022-09-30T10:29:49;1.40;;;0.47;;
68273;SDS011;55104;47.356;19.448;2022-09-30T10:32:51;1.00;;;0.38;;
68273;SDS011;55104;47.356;19.448;2022-09-30T10:39:19;1.10;;;0.30;;
68273;SDS011;55104;47.356;19.448;2022-09-30T10:42:26;1.27;;;0.38;;
68273;SDS011;55104;47.356;19.448;2022-09-30T10:45:32;1.23;;;0.43;;
68273;SDS011;55104;47.356;19.448;2022-09-30T10:48:38;1.02;;;0.40;;
68273;SDS011;55104;47.356;19.448;2022-09-30T10:51:41;0.73;;;0.23;;
68273;SDS011;55104;47.356;19.448;2022-09-30T10:54:47;1.03;;;0.40;;
68273;SDS011;55104;47.356;19.448;2022-09-30T10:57:55;0.98;;;0.25;;
68273;SDS011;55104;47.356;19.448;2022-09-30T11:04:27;3.55;;;0.40;;
68273;SDS011;55104;47.356;19.448;2022-09-30T11:07:38;0.47;;;0.20;;
68273;SDS011;55104;47.356;19.448;2022-09-30T11:17:40;0.43;;;0.20;;
68273;SDS011;55104;47.356;19.448;2022-09-30T11:20:52;0.25;;;0.10;;
68273;SDS011;55104;47.356;19.448;2022-09-30T11:24:15;0.60;;;0.30;;
68273;SDS011;55104;47.356;19.448;2022-09-30T11:48:02;0.80;;;0.40;;
68273;SDS011;55104;47.356;19.448;2022-09-30T11:51:22;0.82;;;0.30;;
68273;SDS011;55104;47.356;19.448;2022-09-30T11:54:50;1.63;;;0.40;;
68273;SDS011;55104;47.356;19.448;2022-09-30T11:58:03;0.37;;;0.20;;
68273;SDS011;55104;47.356;19.448;2022-09-30T12:01:33;0.80;;;0.20;;
68273;SDS011;55104;47.356;19.448;2022-09-30T12:04:41;0.85;;;0.30;;
68273;SDS011;55104;47.356;19.448;2022-09-30T12:07:47;0.68;;;0.30;;
68273;SDS011;55104;47.356;19.448;2022-09-30T12:10:54;0.63;;;0.30;;
68273;SDS011;55104;47.356;19.448;2022-09-30T12:14:02;0.87;;;0.23;;
68273;SDS011;55104;47.356;19.448;2022-09-30T12:17:15;1.13;;;0.40;;
68273;SDS011;55104;47.356;19.448;2022-09-30T12:20:36;0.47;;;0.22;;
68273;SDS011;55104;47.356;19.448;2022-09-30T12:26:50;0.40;;;0.20;;
68273;SDS011;55104;47.356;19.448;2022-09-30T12:33:27;0.60;;;0.20;;
68273;SDS011;55104;47.356;19.448;2022-09-30T12:36:49;0.28;;;0.20;;
68273;SDS011;55104;47.356;19.448;2022-09-30T12:44:11;0.50;;;0.20;;
68273;SDS011;55104;47.356;19.448;2022-09-30T12:47:30;0.60;;;0.20;;
68273;SDS011;55104;47.356;19.448;2022-09-30T12:50:59;1.63;;;0.43;;
68273;SDS011;55104;47.356;19.448;2022-09-30T12:54:04;0.28;;;0.10;;
68273;SDS011;55104;47.356;19.448;2022-09-30T12:57:13;0.80;;;0.30;;
68273;SDS011;55104;47.356;19.448;2022-09-30T13:00:25;1.77;;;0.30;;
68273;SDS011;55104;47.356;19.448;2022-09-30T13:10:22;1.00;;;0.40;;
68273;SDS011;55104;47.356;19.448;2022-09-30T13:13:28;0.73;;;0.30;;
68273;SDS011;55104;47.356;19.448;2022-09-30T13:23:50;1.53;;;0.60;;
68273;SDS011;55104;47.356;19.448;2022-09-30T13:27:31;2.08;;;0.45;;
68273;SDS011;55104;47.356;19.448;2022-09-30T13:30:33;1.15;;;0.43;;
68273;SDS011;55104;47.356;19.448;2022-09-30T13:33:41;1.30;;;0.50;;
68273;SDS011;55104;47.356;19.448;2022-09-30T13:39:53;1.57;;;0.50;;
68273;SDS011;55104;47.356;19.448;2022-09-30T13:42:57;1.15;;;0.30;;
68273;SDS011;55104;47.356;19.448;2022-09-30T13:46:05;0.52;;;0.20;;
68273;SDS011;55104;47.356;19.448;2022-09-30T13:52:37;1.43;;;0.57;;
68273;SDS011;55104;47.356;19.448;2022-09-30T13:55:43;0.80;;;0.30;;
68273;SDS011;55104;47.356;19.448;2022-09-30T14:16:07;1.33;;;0.40;;
68273;SDS011;55104;47.356;19.448;2022-09-30T14:19:04;2.10;;;0.75;;
68273;SDS011;55104;47.356;19.448;2022-09-30T14:22:08;0.98;;;0.30;;
68273;SDS011;55104;47.356;19.448;2022-09-30T14:25:13;0.67;;;0.30;;
68273;SDS011;55104;47.356;19.448;2022-09-30T14:28:20;0.70;;;0.20;;
68273;SDS011;55104;47.356;19.448;2022-09-30T14:31:34;0.85;;;0.20;;
68273;SDS011;55104;47.356;19.448;2022-09-30T14:34:45;0.88;;;0.30;;
68273;SDS011;55104;47.356;19.448;2022-09-30T14:37:52;0.82;;;0.30;;
68273;SDS011;55104;47.356;19.448;2022-09-30T14:41:00;0.53;;;0.20;;
68273;SDS011;55104;47.356;19.448;2022-09-30T14:44:10;0.73;;;0.27;;
68273;SDS011;55104;47.356;19.448;2022-09-30T14:47:17;1.23;;;0.40;;
68273;SDS011;55104;47.356;19.448;2022-09-30T14:50:24;0.63;;;0.22;;
68273;SDS011;55104;47.356;19.448;2022-09-30T14:53:29;1.13;;;0.43;;
68273;SDS011;55104;47.356;19.448;2022-09-30T14:56:33;2.23;;;0.43;;
68273;SDS011;55104;47.356;19.448;2022-09-30T14:59:37;0.90;;;0.30;;
68273;SDS011;55104;47.356;19.448;2022-09-30T15:02:44;0.80;;;0.30;;
68273;SDS011;55104;47.356;19.448;2022-09-30T15:05:47;0.30;;;0.13;;
68273;SDS011;55104;47.356;19.448;2022-09-30T15:08:49;1.08;;;0.50;;
68273;SDS011;55104;47.356;19.448;2022-09-30T15:11:53;0.70;;;0.17;;
68273;SDS011;55104;47.356;19.448;2022-09-30T15:14:56;0.50;;;0.20;;
68273;SDS011;55104;47.356;19.448;2022-09-30T15:18:04;0.90;;;0.30;;
68273;SDS011;55104;47.356;19.448;2022-09-30T15:21:23;0.65;;;0.20;;
68273;SDS011;55104;47.356;19.448;2022-09-30T15:24:28;2.88;;;1.45;;
68273;SDS011;55104;47.356;19.448;2022-09-30T15:27:33;3.63;;;1.20;;
68273;SDS011;55104;47.356;19.448;2022-09-30T15:30:37;2.60;;;0.80;;
68273;SDS011;55104;47.356;19.448;2022-09-30T15:33:39;2.00;;;0.70;;
68273;SDS011;55104;47.356;19.448;2022-09-30T15:36:41;1.38;;;0.50;;
68273;SDS011;55104;47.356;19.448;2022-09-30T15:39:47;2.70;;;0.68;;
68273;SDS011;55104;47.356;19.448;2022-09-30T15:43:09;1.50;;;0.60;;
68273;SDS011;55104;47.356;19.448;2022-09-30T15:52:43;1.60;;;0.68;;
68273;SDS011;55104;47.356;19.448;2022-09-30T15:55:46;2.72;;;1.08;;
68273;SDS011;55104;47.356;19.448;2022-09-30T15:58:53;3.43;;;1.10;;
68273;SDS011;55104;47.356;19.448;2022-09-30T16:02:08;2.53;;;0.80;;
68273;SDS011;55104;47.356;19.448;2022-09-30T16:05:11;1.92;;;0.68;;
68273;SDS011;55104;47.356;19.448;2022-09-30T16:08:32;2.80;;;1.00;;
68273;SDS011;55104;47.356;19.448;2022-09-30T16:15:14;2.83;;;1.23;;
68273;SDS011;55104;47.356;19.448;2022-09-30T16:18:21;3.43;;;1.50;;
68273;SDS011;55104;47.356;19.448;2022-09-30T16:21:35;3.40;;;1.30;;
68273;SDS011;55104;47.356;19.448;2022-09-30T16:24:44;9.57;;;2.80;;
68273;SDS011;55104;47.356;19.448;2022-09-30T16:27:52;6.13;;;2.40;;
68273;SDS011;55104;47.356;19.448;2022-09-30T16:30:57;3.43;;;1.43;;
68273;SDS011;55104;47.356;19.448;2022-09-30T16:33:59;4.72;;;1.42;;
68273;SDS011;55104;47.356;19.448;2022-09-30T16:37:14;2.90;;;1.08;;
68273;SDS011;55104;47.356;19.448;2022-09-30T16:40:26;4.60;;;1.50;;
68273;SDS011;55104;47.356;19.448;2022-09-30T16:43:29;3.58;;;1.42;;
68273;SDS011;55104;47.356;19.448;2022-09-30T16:46:32;2.13;;;0.93;;
68273;SDS011;55104;47.356;19.448;2022-09-30T16:49:35;2.38;;;0.70;;
68273;SDS011;55104;47.356;19.448;2022-09-30T16:52:36;2.85;;;1.10;;
68273;SDS011;55104;47.356;19.448;2022-09-30T16:55:38;4.13;;;1.38;;
68273;SDS011;55104;47.356;19.448;2022-09-30T16:58:41;6.13;;;1.45;;
68273;SDS011;55104;47.356;19.448;2022-09-30T17:01:44;3.13;;;1.33;;
68273;SDS011;55104;47.356;19.448;2022-09-30T17:04:46;2.08;;;0.73;;
68273;SDS011;55104;47.356;19.448;2022-09-30T17:07:50;4.32;;;1.77;;
68273;SDS011;55104;47.356;19.448;2022-09-30T17:10:54;3.53;;;1.73;;
68273;SDS011;55104;47.356;19.448;2022-09-30T17:13:56;5.18;;;1.02;;
68273;SDS011;55104;47.356;19.448;2022-09-30T17:16:59;7.53;;;1.93;;
68273;SDS011;55104;47.356;19.448;2022-09-30T17:20:01;12.43;;;2.38;;
68273;SDS011;55104;47.356;19.448;2022-09-30T17:23:03;4.47;;;1.77;;
68273;SDS011;55104;47.356;19.448;2022-09-30T17:26:08;4.75;;;2.05;;
68273;SDS011;55104;47.356;19.448;2022-09-30T17:29:10;8.43;;;2.75;;
68273;SDS011;55104;47.356;19.448;2022-09-30T17:32:32;11.53;;;3.13;;
68273;SDS011;55104;47.356;19.448;2022-09-30T17:35:38;5.43;;;2.15;;
68273;SDS011;55104;47.356;19.448;2022-09-30T17:38:41;5.93;;;2.67;;
68273;SDS011;55104;47.356;19.448;2022-09-30T17:41:43;8.40;;;3.40;;
68273;SDS011;55104;47.356;19.448;2022-09-30T17:45:03;4.70;;;2.08;;
68273;SDS011;55104;47.356;19.448;2022-09-30T17:48:06;6.93;;;2.67;;
68273;SDS011;55104;47.356;19.448;2022-09-30T17:51:09;7.47;;;3.60;;
68273;SDS011;55104;47.356;19.448;2022-09-30T17:54:11;8.07;;;3.60;;
68273;SDS011;55104;47.356;19.448;2022-09-30T17:57:13;8.10;;;3.47;;
68273;SDS011;55104;47.356;19.448;2022-09-30T18:00:15;10.82;;;4.88;;
68273;SDS011;55104;47.356;19.448;2022-09-30T18:03:18;13.80;;;4.70;;
68273;SDS011;55104;47.356;19.448;2022-09-30T18:06:20;10.88;;;4.05;;
68273;SDS011;55104;47.356;19.448;2022-09-30T18:09:22;11.10;;;5.13;;
68273;SDS011;55104;47.356;19.448;2022-09-30T18:12:24;14.65;;;5.28;;
68273;SDS011;55104;47.356;19.448;2022-09-30T18:15:26;11.57;;;4.45;;
68273;SDS011;55104;47.356;19.448;2022-09-30T18:18:29;8.67;;;4.63;;
68273;SDS011;55104;47.356;19.448;2022-09-30T18:21:31;12.50;;;4.80;;
68273;SDS011;55104;47.356;19.448;2022-09-30T18:24:35;11.55;;;4.10;;
68273;SDS011;55104;47.356;19.448;2022-09-30T18:27:56;10.93;;;5.50;;
68273;SDS011;55104;47.356;19.448;2022-09-30T18:31:03;10.45;;;4.03;;
68273;SDS011;55104;47.356;19.448;2022-09-30T18:34:06;13.03;;;5.47;;
68273;SDS011;55104;47.356;19.448;2022-09-30T18:37:08;10.75;;;5.00;;
68273;SDS011;55104;47.356;19.448;2022-09-30T18:40:12;9.82;;;4.57;;
68273;SDS011;55104;47.356;19.448;2022-09-30T18:43:18;12.38;;;6.03;;
68273;SDS011;55104;47.356;19.448;2022-09-30T18:46:22;11.73;;;4.57;;
68273;SDS011;55104;47.356;19.448;2022-09-30T18:49:25;13.10;;;5.40;;
68273;SDS011;55104;47.356;19.448;2022-09-30T18:52:27;12.52;;;4.22;;
68273;SDS011;55104;47.356;19.448;2022-09-30T18:55:29;8.55;;;2.95;;
68273;SDS011;55104;47.356;19.448;2022-09-30T18:58:31;10.90;;;3.95;;
68273;SDS011;55104;47.356;19.448;2022-09-30T19:01:33;8.88;;;3.25;;
68273;SDS011;55104;47.356;19.448;2022-09-30T19:04:37;10.03;;;5.03;;
68273;SDS011;55104;47.356;19.448;2022-09-30T19:07:39;10.77;;;5.53;;
68273;SDS011;55104;47.356;19.448;2022-09-30T19:10:41;17.60;;;4.50;;
68273;SDS011;55104;47.356;19.448;2022-09-30T19:13:45;11.82;;;5.07;;
68273;SDS011;55104;47.356;19.448;2022-09-30T19:16:50;7.22;;;3.42;;
68273;SDS011;55104;47.356;19.448;2022-09-30T19:19:52;10.53;;;2.87;;
68273;SDS011;55104;47.356;19.448;2022-09-30T19:22:54;6.13;;;2.78;;
68273;SDS011;55104;47.356;19.448;2022-09-30T19:25:56;7.30;;;2.78;;
68273;SDS011;55104;47.356;19.448;2022-09-30T19:29:00;7.47;;;3.08;;
68273;SDS011;55104;47.356;19.448;2022-09-30T19:32:03;7.38;;;3.08;;
68273;SDS011;55104;47.356;19.448;2022-09-30T19:35:07;6.50;;;2.83;;
68273;SDS011;55104;47.356;19.448;2022-09-30T19:38:14;6.57;;;2.67;;
68273;SDS011;55104;47.356;19.448;2022-09-30T19:41:16;10.25;;;2.95;;
68273;SDS011;55104;47.356;19.448;2022-09-30T19:44:22;5.20;;;2.47;;
68273;SDS011;55104;47.356;19.448;2022-09-30T19:47:24;7.05;;;2.67;;
68273;SDS011;55104;47.356;19.448;2022-09-30T19:50:27;6.37;;;2.67;;
68273;SDS011;55104;47.356;19.448;2022-09-30T19:53:31;10.32;;;3.83;;
68273;SDS011;55104;47.356;19.448;2022-09-30T19:56:42;9.27;;;4.65;;
68273;SDS011;55104;47.356;19.448;2022-09-30T19:59:44;8.02;;;3.35;;
68273;SDS011;55104;47.356;19.448;2022-09-30T20:02:46;16.83;;;5.90;;
68273;SDS011;55104;47.356;19.448;2022-09-30T20:05:48;14.00;;;5.07;;
68273;SDS011;55104;47.356;19.448;2022-09-30T20:08:57;8.48;;;3.38;;
68273;SDS011;55104;47.356;19.448;2022-09-30T20:12:01;12.82;;;3.25;;
68273;SDS011;55104;47.356;19.448;2022-09-30T20:15:03;6.82;;;3.30;;
68273;SDS011;55104;47.356;19.448;2022-09-30T20:18:24;12.38;;;3.17;;
68273;SDS011;55104;47.356;19.448;2022-09-30T20:21:26;9.70;;;3.43;;
68273;SDS011;55104;47.356;19.448;2022-09-30T20:24:28;5.78;;;1.60;;
68273;SDS011;55104;47.356;19.448;2022-09-30T20:27:30;9.35;;;3.10;;
68273;SDS011;55104;47.356;19.448;2022-09-30T20:30:36;7.20;;;3.70;;
68273;SDS011;55104;47.356;19.448;2022-09-30T20:33:46;5.38;;;2.45;;
68273;SDS011;55104;47.356;19.448;2022-09-30T20:36:48;5.87;;;2.03;;
68273;SDS011;55104;47.356;19.448;2022-09-30T20:39:50;5.50;;;2.30;;
68273;SDS011;55104;47.356;19.448;2022-09-30T20:42:52;9.80;;;2.88;;
68273;SDS011;55104;47.356;19.448;2022-09-30T20:46:00;5.40;;;1.95;;
68273;SDS011;55104;47.356;19.448;2022-09-30T20:49:04;8.65;;;3.22;;
68273;SDS011;55104;47.356;19.448;2022-09-30T20:52:06;6.53;;;2.17;;
68273;SDS011;55104;47.356;19.448;2022-09-30T20:55:08;7.03;;;2.92;;
68273;SDS011;55104;47.356;19.448;2022-09-30T20:58:11;5.03;;;1.55;;
68273;SDS011;55104;47.356;19.448;2022-09-30T21:01:14;5.80;;;2.50;;
68273;SDS011;55104;47.356;19.448;2022-09-30T21:04:20;3.17;;;1.60;;
68273;SDS011;55104;47.356;19.448;2022-09-30T21:07:23;5.47;;;2.40;;
68273;SDS011;55104;47.356;19.448;2022-09-30T21:10:25;5.50;;;2.05;;